In Rescue
 
Open Full Screen Window  High Contrast Mode
Wind Gusting 00 knots
05
December 19, 2018 11:20 AM EST
Weather Information
Wind Direction
  210 °
Wind Speed
  05 kt (6 mph)
Wind Gust
  00 kt (0 mph)
Altimeter
30.03 in
Visibility
10 SM
Temperature
03° C
37° F
Dewpoint
-01° C
30° F
Humidity
75%
1hr Rain Fall
00.00 in.
24hr Rain Fall
00.00 in.
Sky Condition
Clear
VFR

METAR KMRT 191620Z AUTO 21005KT 10SM CLR 03/M01 A3003 RMK AO2 T00261006

FAA Disclaimer: The data displayed is for advisory purposes only and is not to be used for flight planning or operations.